KCHK

Details ICAO KCHK
Name CHICKASHA MUNI
Region United States
Timezone America/Chicago (UTC-5.0)
Plans Departing 7
Arriving 1
Stats Elevation 1,150 ft / 351 m (AMSL)
Location 35.097590° -97.967212°
Runways 3
Magnetic Variation 3.954° E
Sunrise 2018-05-20 11:26:00 UTC / 2018-05-20 06:26:00 Local
Sunset 2018-05-21 01:33:40 UTC / 2018-05-20 20:33:40 Local
Advertisement - Login to hide

Runways

ID Width Length Bearing (true) Bearing (mag) Surface Threshold Offset Overrun Length
04 100 ft / 30 m 2,529 ft / 771 m 32.87° 28.92° Grass 0 ft / 0 m 0 ft / 0 m
17 100 ft / 30 m 5,113 ft / 1,558 m 180.00° 176.05° Concrete 0 ft / 0 m 0 ft / 0 m
18 145 ft / 44 m 2,847 ft / 868 m 180.00° 176.05° Grass 0 ft / 0 m 0 ft / 0 m
22 100 ft / 30 m 2,529 ft / 771 m 212.87° 208.92° Grass 0 ft / 0 m 0 ft / 0 m
35 100 ft / 30 m 5,113 ft / 1,558 m 0.00° 356.05° Concrete 0 ft / 0 m 0 ft / 0 m
36 145 ft / 44 m 2,847 ft / 868 m 0.00° 356.05° Grass 0 ft / 0 m 0 ft / 0 m

Map

Weather


0- 5 10 15 20 25 30 35+ Temperature / ° C

Clouds and Precipitation
Forecast for 2018-05-20 18:00 UTC. Updated 2 hours ago

Ground ~20,000 ft ~40,000 ft Winds

METAR

KCHK 201935Z AUTO 35008KT 10SM OVC025 21/16 A3005 RMK AO2 T02140161

TAF

Not found

Frequencies

Recorded 118.17 MHz AWOS 3
Approach 124.60 MHz OKE CITY APP/DEP
Unicom 123.00 MHz CTAF/UNICOM
Warning: Do not use this data for real-world aviation or navigation. No guarantee of current accuracy is given.